createdAt,value
2019-03-16T00:01:33.291Z,45.47
2019-03-16T00:04:00.516Z,45.54
2019-03-16T00:06:27.759Z,45.51
2019-03-16T00:08:54.974Z,45.44
2019-03-16T00:11:22.182Z,45.43
2019-03-16T00:13:49.385Z,45.47
2019-03-16T00:16:16.608Z,45.40
2019-03-16T00:18:43.839Z,45.32
2019-03-16T00:21:11.069Z,45.34
2019-03-16T00:23:38.265Z,45.50
2019-03-16T00:26:05.508Z,45.40
2019-03-16T00:28:32.688Z,45.39
2019-03-16T00:30:59.910Z,45.40
2019-03-16T00:33:27.154Z,45.42
2019-03-16T00:35:54.392Z,45.38
2019-03-16T00:38:23.439Z,45.38
2019-03-16T00:40:50.759Z,45.39
2019-03-16T00:43:17.932Z,45.41
2019-03-16T00:45:45.153Z,45.45
2019-03-16T00:48:12.327Z,45.37
2019-03-16T00:50:39.553Z,45.33
2019-03-16T00:53:06.797Z,45.38
2019-03-16T00:55:33.974Z,45.27
2019-03-16T00:58:01.181Z,45.32
2019-03-16T01:00:28.406Z,45.40
2019-03-16T01:02:55.573Z,45.31
2019-03-16T01:05:22.778Z,45.40
2019-03-16T01:07:49.947Z,45.32
2019-03-16T01:10:17.139Z,45.43
2019-03-16T01:12:44.425Z,45.34
2019-03-16T01:15:11.701Z,45.33
2019-03-16T01:17:38.948Z,45.39
2019-03-16T01:20:06.488Z,45.33
2019-03-16T01:22:33.673Z,45.38
2019-03-16T01:25:00.887Z,45.37
2019-03-16T01:27:28.063Z,45.33
2019-03-16T01:29:55.263Z,45.34
2019-03-16T01:32:22.455Z,45.35
2019-03-16T01:34:49.664Z,45.40
2019-03-16T01:37:16.886Z,45.43
2019-03-16T01:39:44.086Z,45.42
2019-03-16T01:42:11.290Z,45.41
2019-03-16T01:44:38.631Z,45.45
2019-03-16T01:47:05.843Z,45.47
2019-03-16T01:49:33.045Z,45.48
2019-03-16T01:52:00.230Z,45.36
2019-03-16T01:54:27.443Z,45.33
2019-03-16T01:56:54.692Z,45.36
2019-03-16T01:59:21.900Z,45.31
2019-03-16T02:01:49.568Z,45.28
2019-03-16T02:04:16.994Z,45.37
2019-03-16T02:06:44.325Z,45.34
2019-03-16T02:09:11.502Z,45.33
2019-03-16T02:11:38.706Z,45.35
2019-03-16T02:14:05.914Z,45.35
2019-03-16T02:16:33.100Z,45.32
2019-03-16T02:19:00.282Z,45.31
2019-03-16T02:21:27.516Z,45.25
2019-03-16T02:23:54.803Z,45.31
2019-03-16T02:26:22.003Z,45.37
2019-03-16T02:28:49.214Z,45.24
2019-03-16T02:31:16.448Z,45.30
2019-03-16T02:33:43.627Z,45.26
2019-03-16T02:36:10.856Z,45.26
2019-03-16T02:38:38.077Z,45.21
2019-03-16T02:41:05.246Z,45.14
2019-03-16T02:43:32.394Z,45.18
2019-03-16T02:45:59.615Z,45.18
2019-03-16T02:48:26.819Z,45.22
2019-03-16T02:50:54.023Z,45.20
2019-03-16T02:53:21.215Z,45.20
2019-03-16T02:55:48.539Z,45.14
2019-03-16T02:58:15.718Z,45.22
2019-03-16T03:00:42.894Z,45.25
2019-03-16T03:03:10.108Z,45.28
2019-03-16T03:05:37.283Z,45.26
2019-03-16T03:08:04.495Z,45.24
2019-03-16T03:10:31.666Z,45.23
2019-03-16T03:12:59.378Z,45.21
2019-03-16T03:15:26.561Z,45.24
2019-03-16T03:17:53.759Z,45.25
2019-03-16T03:20:20.940Z,45.29
2019-03-16T03:22:48.136Z,45.27
2019-03-16T03:25:15.310Z,45.27
2019-03-16T03:27:42.537Z,45.23
2019-03-16T03:30:09.794Z,45.19
2019-03-16T03:32:37.337Z,45.25
2019-03-16T03:35:04.711Z,45.26
2019-03-16T03:37:31.853Z,45.21
2019-03-16T03:39:59.070Z,45.24
2019-03-16T03:42:26.271Z,45.23
2019-03-16T03:44:53.476Z,45.16
2019-03-16T03:47:20.664Z,45.17
2019-03-16T03:49:47.940Z,45.13
2019-03-16T03:52:15.129Z,45.12
2019-03-16T03:54:42.401Z,45.13
2019-03-16T03:57:09.572Z,45.06
2019-03-16T03:59:36.747Z,45.02
2019-03-16T04:02:03.968Z,45.01
2019-03-16T04:04:31.142Z,45.11
2019-03-16T04:06:58.373Z,45.11
2019-03-16T04:09:25.625Z,45.20
2019-03-16T04:11:52.863Z,45.19
2019-03-16T04:14:20.067Z,45.07
2019-03-16T04:16:47.238Z,45.10
2019-03-16T04:19:14.438Z,45.09
2019-03-16T04:21:41.635Z,45.01
2019-03-16T04:24:08.845Z,44.94
2019-03-16T04:26:36.065Z,44.84
2019-03-16T04:29:03.253Z,44.81
2019-03-16T04:31:30.461Z,44.73
2019-03-16T04:33:57.637Z,44.76
2019-03-16T04:36:24.848Z,44.72
2019-03-16T04:38:52.042Z,44.70
2019-03-16T04:41:19.223Z,44.68
2019-03-16T04:43:46.444Z,44.61
2019-03-16T04:46:13.615Z,44.51
2019-03-16T04:48:40.805Z,44.49
2019-03-16T04:51:08.014Z,44.49
2019-03-16T04:53:35.245Z,44.49
2019-03-16T04:56:02.415Z,44.50
2019-03-16T04:58:29.788Z,44.54
2019-03-16T05:00:56.938Z,44.56
2019-03-16T05:03:24.143Z,44.59
2019-03-16T05:05:51.367Z,44.58
2019-03-16T05:08:18.598Z,44.52
2019-03-16T05:10:45.775Z,44.48
2019-03-16T05:13:13.023Z,44.48
2019-03-16T05:15:40.221Z,44.50
2019-03-16T05:18:07.391Z,44.49
2019-03-16T05:20:34.622Z,44.47
2019-03-16T05:23:01.806Z,44.53
2019-03-16T05:25:29.052Z,44.59
2019-03-16T05:27:56.219Z,44.54
2019-03-16T05:30:23.435Z,44.48
2019-03-16T05:32:50.698Z,44.50
2019-03-16T05:35:17.875Z,44.53
2019-03-16T05:37:45.042Z,44.50
2019-03-16T05:40:12.247Z,44.59
2019-03-16T05:42:39.442Z,44.53
2019-03-16T05:45:06.676Z,44.51
2019-03-16T05:47:33.886Z,44.51
2019-03-16T05:50:01.051Z,44.55
2019-03-16T05:52:28.252Z,44.54
2019-03-16T05:54:55.530Z,44.49
2019-03-16T05:57:22.687Z,44.40
2019-03-16T05:59:49.966Z,44.39
2019-03-16T06:02:17.173Z,44.43
2019-03-16T06:04:44.353Z,44.29
2019-03-16T06:07:11.630Z,44.32
2019-03-16T06:09:38.820Z,44.30
2019-03-16T06:12:05.993Z,44.29
2019-03-16T06:14:33.184Z,44.23
2019-03-16T06:17:00.359Z,44.24
2019-03-16T06:19:27.672Z,44.22
2019-03-16T06:21:54.857Z,44.20
2019-03-16T06:24:22.057Z,44.10
2019-03-16T06:26:49.282Z,44.11
2019-03-16T06:29:16.475Z,44.14
2019-03-16T06:31:43.725Z,44.08
2019-03-16T06:34:10.921Z,44.06
2019-03-16T06:36:38.131Z,43.98
2019-03-16T06:39:06.770Z,43.99
2019-03-16T06:41:33.967Z,43.95
2019-03-16T06:44:01.179Z,43.95
2019-03-16T06:46:28.368Z,44.01
2019-03-16T06:48:55.571Z,43.97
2019-03-16T06:51:22.763Z,43.96
2019-03-16T06:53:49.953Z,43.98
2019-03-16T06:56:17.148Z,43.96
2019-03-16T06:58:44.347Z,43.92
2019-03-16T07:01:11.539Z,43.99
2019-03-16T07:03:38.736Z,44.01
2019-03-16T07:06:05.940Z,43.99
2019-03-16T07:08:33.158Z,44.05
2019-03-16T07:11:00.340Z,44.04
2019-03-16T07:13:27.680Z,44.03
2019-03-16T07:15:54.858Z,44.02
2019-03-16T07:18:22.057Z,43.98
2019-03-16T07:20:49.258Z,44.00
2019-03-16T07:23:16.448Z,43.93
2019-03-16T07:25:43.741Z,43.84
2019-03-16T07:28:10.920Z,43.79
2019-03-16T07:30:38.117Z,43.76
2019-03-16T07:33:05.319Z,43.76
2019-03-16T07:35:32.504Z,43.70
2019-03-16T07:37:59.680Z,43.70
2019-03-16T07:40:27.375Z,43.68
2019-03-16T07:42:54.614Z,43.68
2019-03-16T07:45:21.790Z,43.69
2019-03-16T07:47:48.995Z,43.64
2019-03-16T07:50:16.612Z,43.60
2019-03-16T07:52:45.072Z,43.52
2019-03-16T07:55:12.324Z,43.52
2019-03-16T07:57:40.920Z,43.53
2019-03-16T08:00:08.493Z,43.46
2019-03-16T08:02:35.699Z,43.43
2019-03-16T08:05:16.875Z,43.39
2019-03-16T08:07:32.331Z,43.34
2019-03-16T08:10:02.992Z,43.35
2019-03-16T08:12:28.656Z,43.37
2019-03-16T08:14:55.836Z,43.36
2019-03-16T08:17:23.024Z,43.40
2019-03-16T08:19:50.226Z,43.33
2019-03-16T08:22:17.448Z,43.36
2019-03-16T08:24:44.908Z,43.33
2019-03-16T08:27:12.134Z,43.29
2019-03-16T08:29:39.318Z,43.32
2019-03-16T08:32:06.546Z,43.30
2019-03-16T08:34:33.731Z,43.29
2019-03-16T08:37:00.934Z,43.22
2019-03-16T08:39:28.106Z,43.26
2019-03-16T08:41:55.338Z,43.18
2019-03-16T08:44:22.836Z,43.17
2019-03-16T08:46:50.095Z,43.20
2019-03-16T08:49:17.246Z,43.17
2019-03-16T08:51:44.436Z,43.16
2019-03-16T08:54:11.652Z,43.21
2019-03-16T08:56:38.833Z,43.23
2019-03-16T08:59:06.187Z,43.16
2019-03-16T09:01:33.337Z,43.17
2019-03-16T09:04:00.478Z,43.20
2019-03-16T09:06:27.699Z,43.15
2019-03-16T09:08:54.889Z,43.17
2019-03-16T09:11:22.085Z,43.16
2019-03-16T09:13:49.297Z,43.13
2019-03-16T09:16:16.494Z,43.12
2019-03-16T09:18:43.745Z,43.08
2019-03-16T09:21:10.932Z,43.11
2019-03-16T09:23:38.194Z,43.12
2019-03-16T09:26:05.417Z,43.19
2019-03-16T09:28:32.596Z,43.21
2019-03-16T09:30:59.793Z,43.24
2019-03-16T09:33:27.037Z,43.22
2019-03-16T09:35:54.649Z,43.18
2019-03-16T09:38:21.815Z,43.11
2019-03-16T09:40:49.003Z,43.04
2019-03-16T09:43:16.162Z,43.02
2019-03-16T09:45:43.327Z,43.11
2019-03-16T09:48:10.538Z,43.03
2019-03-16T09:50:37.729Z,42.98
2019-03-16T09:53:04.956Z,42.88
2019-03-16T09:55:35.045Z,42.88
2019-03-16T09:58:01.284Z,42.91
2019-03-16T10:00:28.450Z,42.87
2019-03-16T10:02:55.639Z,42.84
2019-03-16T10:05:22.864Z,42.77
2019-03-16T10:07:50.087Z,42.76
2019-03-16T10:10:17.294Z,42.69
2019-03-16T10:12:44.467Z,42.62
2019-03-16T10:15:11.666Z,42.63
2019-03-16T10:17:38.845Z,42.64
2019-03-16T10:20:06.188Z,42.65
2019-03-16T10:22:33.347Z,42.66
2019-03-16T10:25:00.561Z,42.66
2019-03-16T10:27:27.722Z,42.66
2019-03-16T10:29:54.918Z,42.63
2019-03-16T10:32:22.086Z,42.56
2019-03-16T10:34:49.352Z,42.51
2019-03-16T10:37:16.526Z,42.49
2019-03-16T10:39:43.766Z,42.49
2019-03-16T10:42:10.958Z,42.47
2019-03-16T10:44:38.136Z,42.50
2019-03-16T10:47:05.311Z,42.53
2019-03-16T10:49:32.507Z,42.58
2019-03-16T10:51:59.738Z,42.69
2019-03-16T10:54:26.900Z,42.67
2019-03-16T10:56:54.115Z,42.70
2019-03-16T10:59:21.362Z,42.76
2019-03-16T11:01:48.546Z,42.70
2019-03-16T11:04:15.699Z,42.75
2019-03-16T11:06:42.924Z,42.72
2019-03-16T11:09:10.149Z,42.74
2019-03-16T11:11:37.341Z,42.78
2019-03-16T11:14:04.522Z,42.81
2019-03-16T11:16:31.755Z,42.86
2019-03-16T11:18:58.945Z,42.91
2019-03-16T11:21:26.120Z,42.92
2019-03-16T11:23:53.313Z,42.88
2019-03-16T11:26:20.533Z,42.89
2019-03-16T11:28:47.694Z,42.93
2019-03-16T11:31:14.872Z,43.06
2019-03-16T11:33:42.077Z,43.08
2019-03-16T11:36:09.289Z,43.14
2019-03-16T11:38:36.465Z,43.12
2019-03-16T11:41:03.690Z,43.14
2019-03-16T11:43:30.872Z,43.20
2019-03-16T11:45:58.107Z,43.20
2019-03-16T11:48:25.465Z,43.24
2019-03-16T11:50:52.729Z,43.26
2019-03-16T11:53:19.951Z,43.29
2019-03-16T11:55:47.133Z,43.36
2019-03-16T11:58:14.413Z,43.34
2019-03-16T12:00:41.583Z,43.33
2019-03-16T12:03:08.822Z,43.33
2019-03-16T12:05:36.003Z,43.37
2019-03-16T12:08:03.165Z,43.42
2019-03-16T12:10:30.360Z,43.45
2019-03-16T12:12:57.579Z,43.50
2019-03-16T12:15:24.788Z,43.52
2019-03-16T12:17:51.971Z,43.50
2019-03-16T12:20:19.199Z,43.52
2019-03-16T12:22:46.353Z,43.48
2019-03-16T12:25:13.579Z,43.50
2019-03-16T12:27:40.740Z,43.50
2019-03-16T12:30:08.012Z,43.55
2019-03-16T12:32:35.254Z,43.59
2019-03-16T12:35:02.744Z,43.58
2019-03-16T12:37:29.970Z,43.60
2019-03-16T12:39:57.193Z,43.55
2019-03-16T12:42:24.372Z,43.59
2019-03-16T12:44:51.591Z,43.61
2019-03-16T12:47:19.421Z,43.60
2019-03-16T12:49:46.654Z,43.64
2019-03-16T12:52:13.986Z,43.67
2019-03-16T12:54:41.171Z,43.68
2019-03-16T12:57:08.439Z,43.71
2019-03-16T12:59:46.258Z,43.73
2019-03-16T13:02:04.766Z,43.71
2019-03-16T13:04:31.944Z,43.74
2019-03-16T13:06:59.173Z,43.75
2019-03-16T13:09:26.385Z,43.81
2019-03-16T13:11:53.548Z,43.84
2019-03-16T13:14:20.739Z,43.87
2019-03-16T13:16:47.919Z,43.88
2019-03-16T13:19:15.103Z,43.90
2019-03-16T13:21:43.822Z,43.93
2019-03-16T13:24:11.414Z,43.95
2019-03-16T13:26:38.655Z,43.90
2019-03-16T13:29:05.883Z,43.92
2019-03-16T13:31:33.046Z,43.87
2019-03-16T13:34:00.449Z,43.87
2019-03-16T13:36:27.616Z,43.84
2019-03-16T13:38:54.790Z,43.93
2019-03-16T13:41:21.978Z,43.93
2019-03-16T13:43:49.154Z,43.90
2019-03-16T13:46:16.399Z,43.83
2019-03-16T13:48:43.605Z,43.90
2019-03-16T13:51:10.864Z,43.86
2019-03-16T13:53:38.045Z,43.92
2019-03-16T13:56:05.568Z,43.93
2019-03-16T13:58:32.751Z,44.00
2019-03-16T14:00:59.937Z,44.00
2019-03-16T14:03:27.162Z,44.01
2019-03-16T14:05:54.775Z,44.00
2019-03-16T14:08:22.012Z,44.01
2019-03-16T14:10:49.171Z,44.00
2019-03-16T14:13:16.621Z,44.01
2019-03-16T14:15:43.793Z,44.00
2019-03-16T14:18:11.002Z,44.05
2019-03-16T14:20:38.164Z,44.00
2019-03-16T14:23:05.359Z,43.98
2019-03-16T14:25:32.831Z,44.02
2019-03-16T14:28:00.072Z,44.02
2019-03-16T14:30:40.333Z,44.03
2019-03-16T14:32:56.353Z,44.09
2019-03-16T14:35:23.565Z,44.11
2019-03-16T14:37:50.750Z,44.18
2019-03-16T14:40:17.962Z,44.16
2019-03-16T14:42:45.145Z,44.18
2019-03-16T14:45:12.746Z,44.16
2019-03-16T14:47:39.962Z,44.16
2019-03-16T14:50:10.315Z,44.17
2019-03-16T14:52:37.518Z,44.15
2019-03-16T14:55:04.885Z,44.13
2019-03-16T14:57:32.071Z,44.07
2019-03-16T14:59:59.556Z,44.09
2019-03-16T15:02:26.953Z,44.14
2019-03-16T15:04:54.127Z,44.11
2019-03-16T15:07:21.304Z,44.15
2019-03-16T15:09:48.481Z,44.16
2019-03-16T15:12:16.127Z,44.20
2019-03-16T15:14:43.573Z,44.20
2019-03-16T15:17:10.759Z,44.20
2019-03-16T15:19:37.974Z,44.20
2019-03-16T15:22:05.326Z,44.18
2019-03-16T15:24:32.557Z,44.19
2019-03-16T15:26:59.715Z,44.25
2019-03-16T15:29:26.915Z,44.28
2019-03-16T15:31:54.101Z,44.29
2019-03-16T15:34:21.368Z,44.30
2019-03-16T15:36:49.439Z,44.31
2019-03-16T15:39:16.796Z,44.40
2019-03-16T15:41:43.985Z,44.40
2019-03-16T15:44:11.201Z,44.36
2019-03-16T15:46:38.386Z,44.39
2019-03-16T15:49:05.586Z,44.39
2019-03-16T15:51:32.787Z,44.39
2019-03-16T15:53:59.949Z,44.40
2019-03-16T15:56:27.829Z,44.42
2019-03-16T15:58:55.319Z,44.47
2019-03-16T16:01:22.531Z,44.49
2019-03-16T16:03:49.696Z,44.51
2019-03-16T16:06:16.940Z,44.52
2019-03-16T16:08:44.139Z,44.54
2019-03-16T16:11:11.375Z,44.56
2019-03-16T16:13:38.558Z,44.61
2019-03-16T16:16:05.768Z,44.58
2019-03-16T16:18:32.936Z,44.57
2019-03-16T16:21:00.105Z,44.58
2019-03-16T16:23:27.295Z,44.58
2019-03-16T16:25:54.472Z,44.55
2019-03-16T16:28:21.687Z,44.55
2019-03-16T16:30:48.836Z,44.55
2019-03-16T16:33:16.061Z,44.59
2019-03-16T16:35:43.266Z,44.60
2019-03-16T16:38:10.438Z,44.56
2019-03-16T16:40:37.609Z,44.51
2019-03-16T16:43:04.830Z,44.57
2019-03-16T16:45:32.008Z,44.53
2019-03-16T16:47:59.207Z,44.57
2019-03-16T16:50:26.421Z,44.60
2019-03-16T16:52:53.624Z,44.63
2019-03-16T16:55:20.808Z,44.64
2019-03-16T16:57:47.996Z,44.61
2019-03-16T17:00:15.518Z,44.59
2019-03-16T17:02:42.698Z,44.57
2019-03-16T17:05:09.931Z,44.60
2019-03-16T17:07:37.136Z,44.55
2019-03-16T17:10:04.778Z,44.59
2019-03-16T17:12:31.957Z,44.62
2019-03-16T17:14:59.129Z,44.65
2019-03-16T17:17:34.991Z,44.68
2019-03-16T17:19:55.415Z,44.63
2019-03-16T17:22:22.682Z,44.65
2019-03-16T17:24:49.919Z,44.66
2019-03-16T17:27:17.132Z,44.62
2019-03-16T17:29:44.306Z,44.63
2019-03-16T17:32:11.507Z,44.57
2019-03-16T17:34:41.148Z,44.60
2019-03-16T17:37:07.824Z,44.57
2019-03-16T17:39:35.015Z,44.64
2019-03-16T17:42:02.249Z,44.66
2019-03-16T17:44:29.502Z,44.60
2019-03-16T17:46:56.657Z,44.63
2019-03-16T17:49:23.854Z,44.64
2019-03-16T17:51:51.055Z,44.60
2019-03-16T17:54:18.300Z,44.61
2019-03-16T17:56:45.464Z,44.61
2019-03-16T17:59:12.695Z,44.57
2019-03-16T18:01:39.875Z,44.55
2019-03-16T18:04:07.187Z,44.53
2019-03-16T18:06:34.380Z,44.56
2019-03-16T18:09:01.970Z,44.57
2019-03-16T18:11:29.387Z,44.56
2019-03-16T18:13:56.555Z,44.58
2019-03-16T18:16:23.764Z,44.55
2019-03-16T18:18:50.945Z,44.53
2019-03-16T18:21:18.201Z,44.56
2019-03-16T18:23:45.415Z,44.48
2019-03-16T18:26:12.616Z,44.55
2019-03-16T18:28:39.829Z,44.51
2019-03-16T18:31:07.050Z,44.47
2019-03-16T18:33:34.239Z,44.44
2019-03-16T18:36:01.485Z,44.45
2019-03-16T18:38:28.696Z,44.46
2019-03-16T18:40:55.898Z,44.45
2019-03-16T18:43:23.114Z,44.42
2019-03-16T18:45:50.311Z,44.41
2019-03-16T18:48:17.503Z,44.45
2019-03-16T18:50:44.691Z,44.41
2019-03-16T18:53:11.883Z,44.38
2019-03-16T18:55:39.168Z,44.40
2019-03-16T18:58:06.415Z,44.42
2019-03-16T19:00:33.617Z,44.39
2019-03-16T19:03:00.800Z,44.33
2019-03-16T19:05:27.987Z,44.30
2019-03-16T19:07:55.177Z,44.30
2019-03-16T19:10:22.365Z,44.29
2019-03-16T19:12:49.572Z,44.31
2019-03-16T19:15:16.828Z,44.32
2019-03-16T19:17:44.075Z,44.26
2019-03-16T19:20:11.646Z,44.26
2019-03-16T19:22:38.830Z,44.23
2019-03-16T19:25:07.469Z,44.18
2019-03-16T19:27:34.657Z,44.20
2019-03-16T19:30:01.884Z,44.23
2019-03-16T19:32:33.902Z,44.21
2019-03-16T19:34:58.188Z,44.19
2019-03-16T19:37:25.380Z,44.20
2019-03-16T19:39:52.555Z,44.21
2019-03-16T19:42:19.771Z,44.17
2019-03-16T19:44:47.010Z,44.15
2019-03-16T19:47:14.170Z,44.19
2019-03-16T19:49:41.410Z,44.16
2019-03-16T19:52:08.605Z,44.16
2019-03-16T19:54:35.841Z,44.14
2019-03-16T19:57:14.973Z,44.10
2019-03-16T19:59:32.140Z,44.09
2019-03-16T20:01:59.334Z,44.07
2019-03-16T20:04:35.818Z,44.09
2019-03-16T20:06:55.677Z,44.07
2019-03-16T20:09:24.498Z,44.09
2019-03-16T20:11:51.972Z,44.09
2019-03-16T20:14:19.138Z,44.12
2019-03-16T20:16:46.372Z,44.11
2019-03-16T20:19:13.547Z,44.07
2019-03-16T20:21:40.780Z,44.11
2019-03-16T20:24:07.935Z,44.12
2019-03-16T20:26:35.176Z,44.14
2019-03-16T20:29:02.377Z,44.19
2019-03-16T20:31:29.598Z,44.19
2019-03-16T20:33:56.781Z,44.18
2019-03-16T20:36:24.010Z,44.12
2019-03-16T20:38:51.242Z,44.17
2019-03-16T20:41:18.435Z,44.17
2019-03-16T20:43:45.701Z,44.16
2019-03-16T20:46:12.914Z,44.17
2019-03-16T20:48:40.108Z,44.13
2019-03-16T20:51:07.234Z,44.17
2019-03-16T20:53:34.446Z,44.17
2019-03-16T20:56:01.620Z,44.19
2019-03-16T20:58:28.796Z,44.15
2019-03-16T21:00:58.256Z,44.16
2019-03-16T21:03:25.103Z,44.16
2019-03-16T21:05:52.298Z,44.18
2019-03-16T21:08:19.530Z,44.16
2019-03-16T21:10:47.152Z,44.18
2019-03-16T21:13:14.437Z,44.21
2019-03-16T21:15:41.658Z,44.18
2019-03-16T21:18:08.869Z,44.16
2019-03-16T21:20:36.091Z,44.12
2019-03-16T21:23:03.314Z,44.15
2019-03-16T21:25:30.545Z,44.13
2019-03-16T21:27:57.742Z,44.13
2019-03-16T21:30:25.034Z,44.06
2019-03-16T21:32:52.209Z,44.07
2019-03-16T21:35:19.438Z,44.10
2019-03-16T21:37:46.687Z,44.08
2019-03-16T21:40:13.895Z,44.00
2019-03-16T21:42:41.116Z,44.00
2019-03-16T21:45:08.543Z,44.05
2019-03-16T21:47:35.697Z,44.08
2019-03-16T21:50:03.411Z,44.06
2019-03-16T21:52:30.545Z,44.05
2019-03-16T21:54:57.720Z,44.04
2019-03-16T21:57:25.136Z,44.04
2019-03-16T21:59:52.445Z,44.03
2019-03-16T22:02:19.726Z,44.03
2019-03-16T22:04:46.986Z,43.96
2019-03-16T22:07:14.174Z,44.01
2019-03-16T22:09:41.368Z,44.03
2019-03-16T22:12:08.559Z,44.02
2019-03-16T22:14:35.749Z,44.03
2019-03-16T22:17:02.916Z,43.99
2019-03-16T22:19:30.134Z,43.96
2019-03-16T22:21:57.330Z,43.96
2019-03-16T22:24:24.554Z,44.00
2019-03-16T22:26:51.718Z,43.98
2019-03-16T22:29:19.199Z,43.98
2019-03-16T22:31:46.342Z,43.94
2019-03-16T22:34:13.608Z,43.96
2019-03-16T22:36:40.806Z,43.97
2019-03-16T22:39:08.021Z,43.99
2019-03-16T22:41:35.325Z,43.99
2019-03-16T22:44:02.497Z,44.00
2019-03-16T22:46:29.701Z,43.96
2019-03-16T22:48:56.981Z,43.97
2019-03-16T22:51:24.114Z,43.91
2019-03-16T22:53:51.314Z,43.95
2019-03-16T22:56:18.492Z,43.95
2019-03-16T22:58:45.712Z,44.00
2019-03-16T23:01:12.868Z,44.01
2019-03-16T23:03:40.100Z,44.00
2019-03-16T23:06:07.356Z,43.99
2019-03-16T23:08:37.373Z,44.02
2019-03-16T23:11:03.698Z,44.04
2019-03-16T23:13:30.923Z,44.03
2019-03-16T23:15:58.101Z,44.00
2019-03-16T23:18:25.442Z,43.98
2019-03-16T23:20:52.609Z,43.99
2019-03-16T23:23:19.793Z,43.97
2019-03-16T23:25:47.008Z,44.00
2019-03-16T23:28:14.163Z,43.97
2019-03-16T23:30:41.380Z,43.95
2019-03-16T23:33:08.567Z,43.96
2019-03-16T23:35:35.759Z,44.00
2019-03-16T23:38:02.981Z,44.03
2019-03-16T23:40:30.181Z,44.00
2019-03-16T23:42:57.881Z,44.01
2019-03-16T23:45:25.083Z,43.99
2019-03-16T23:47:52.301Z,44.00
2019-03-16T23:50:19.484Z,44.01
2019-03-16T23:52:46.674Z,44.00
2019-03-16T23:55:13.891Z,43.98
2019-03-16T23:57:41.098Z,44.01
